РПИ Нур-Султан

РПИ Нур-Султан является структурным подразделением дивизиона VATRUS сети VATSIM.

РПИ осуществляет свою деятельность в границах Акмолинской, Карагандинской, Павлодарской, Северо-Казахстанской и Костанайской областей Республики Казахстан.

Схемы и аэронавигационную информацию можно получить на сайте   Казаэронавигация

Средства связи ОВД:

UACN_CTR - Нур-Султан Контроль - 132.800

RU-CEN_FSS - Азия Радар  - 132.850 (РПИ: UACN, UAAA, UAII, UATT, UTAA, UCFM, UTAT, UTDD, UTTR,  UCFO,  UTSD, UTAV,  UTAK)

Руководство

Evgeny Vygornitsky*

Куратор

Dmitriy Bannov

Помощник куратора по Казахстану
Инструкторы РПИ
Evgeny Vygornitsky (Supervisor)
Vitaliy Alekseyev (Instructor)
Входит в состав
Центральная Азия

Диспетчеры РПИ

Диспетчер Рейтинг Допуски *
Dmitriy Bannov Instructor UACN_CTR
Alikhan Aidarbek Student UACC_TWR
Arman Maxatov Student 2 UACC_TWR
Artem Kuzmenko Student UACC_GND
Kirill Ardatov Student 2 UACC_TWR
Sarsenov Shadiyar Student UACC_GND

Аэропорты РПИ

ICAO Город Название Погода
UAKK Караганда Караганда UAKK 121730Z 17002MPS CAVOK 13/10 Q1015 NOSIG RMK QFE714/0952
UACC Нур-Султан Нур-Султан UACC 121730Z 32003MPS CAVOK 20/14 Q1015 NOSIG RMK QFE730/0973
UAKD Жезказган Жезказган UAKD 121430Z 36003MPS 9999 SCT046 27/09 Q1015 NOSIG RMK QFE727/0970
UACK Кокшетау Кокшетау UACK 121130Z 28007MPS CAVOK 22/16 Q1014 NOSIG RMK QFE736/0982
UAUU Костанай Костанай UAUU 121730Z 33004MPS CAVOK 15/08 Q1018 NOSIG RMK QFE747/0997
UASP Павлодар Павлодар UASP 121730Z VRB01MPS 9999 SCT053CB 17/15 Q1010 NOSIG RMK QFE747/0996
UACP Петропавловск Петропавловск UACP 121130Z 28004MPS 250V310 9999 BKN030CB 22/15 Q1013 NOSIG RMK QFE747/0997